CST,Max TemperatureF,Mean TemperatureF,Min TemperatureF,Max Dew PointF,MeanDew PointF,Min DewpointF,Max Humidity, Mean Humidity, Min Humidity, Max Sea Level PressureIn, Mean Sea Level PressureIn, Min Sea Level PressureIn, Max VisibilityMiles, Mean VisibilityMiles, Min VisibilityMiles, Max Wind SpeedMPH, Mean Wind SpeedMPH, Max Gust SpeedMPH,PrecipitationIn, CloudCover, Events, WindDirDegrees
2013-11-1,57,46,37,39,37,34,89,74,47,29.94,29.74,29.52,10,10,8,26,13,34,0.00,5,Rain,303
2013-11-2,55,44,33,38,33,29,89,72,43,30.14,30.07,29.94,10,10,7,16,10,22,0.00,2,,287
2013-11-3,57,45,33,35,31,27,85,58,33,30.09,29.91,29.78,10,9,4,40,18,48,0.00,0,,159
2013-11-4,52,41,25,43,36,22,88,74,50,30.19,29.95,29.79,10,10,10,22,15,29,0.03,3,,236
2013-11-5,37,29,21,32,30,20,93,88,76,30.22,30.06,29.95,10,6,1,26,11,36,0.45,7,Rain-Snow,21
2013-11-6,37,32,27,29,26,23,93,82,64,30.26,30.17,30.03,10,9,2,23,15,29,0.00,4,Snow,300
2013-11-7,37,32,26,29,26,22,100,85,57,30.38,30.29,30.21,10,7,0,20,10,,0.00,5,Fog,272
2013-11-8,54,40,25,39,30,19,78,64,45,30.25,29.91,29.69,10,10,10,30,12,41,0.00,1,,193
2013-11-9,48,39,28,36,32,23,81,70,59,30.36,30.07,29.81,10,10,10,25,18,33,0.00,1,,288
2013-11-10,44,32,19,31,25,15,89,74,51,30.44,30.30,30.13,10,10,10,13,7,,0.00,3,,227
2013-11-11,39,26,10,33,16,4,86,75,63,30.82,30.45,30.14,10,8,1,24,15,32,0.01,4,Snow,351
2013-11-12,28,14,0,13,7,-4,84,68,47,30.90,30.77,30.53,10,10,10,15,7,,0.00,0,,249
2013-11-13,53,38,24,28,22,11,70,55,38,30.51,30.17,29.94,10,10,10,29,15,37,0.00,0,,209
2013-11-14,54,41,26,42,31,23,92,77,57,29.95,29.91,29.86,10,10,9,10,7,,0.00,2,Rain,244
2013-11-15,57,40,23,39,29,20,93,77,47,29.90,29.81,29.61,10,8,0,17,3,,0.00,0,Fog,168
2013-11-16,60,48,37,52,40,27,93,79,47,29.59,29.38,29.24,10,7,2,24,14,31,0.00,3,,178
2013-11-17,51,43,35,39,35,27,93,76,56,29.97,29.60,29.37,10,9,5,29,10,34,0.04,4,Rain,296
2013-11-18,44,34,24,29,25,20,89,75,49,30.28,30.18,29.99,10,10,10,15,10,21,0.00,0,,308
2013-11-19,57,42,28,33,29,24,85,59,37,30.23,30.00,29.86,10,10,10,32,18,38,0.00,1,,159
2013-11-20,52,43,30,33,31,27,92,60,47,30.02,29.87,29.82,10,10,7,24,18,30,0.00,3,,152
2013-11-21,32,24,17,30,17,11,100,78,65,30.61,30.33,30.01,10,6,0,25,15,33,0.04,7,Fog-Snow,350
2013-11-22,30,16,1,12,7,-3,80,65,41,30.71,30.65,30.59,10,10,10,20,12,,0.00,1,,303
2013-11-23,19,10,1,2,0,-3,80,66,43,30.92,30.85,30.72,10,10,10,17,11,,0.00,0,,341
2013-11-24,33,20,6,15,9,-1,77,62,46,30.76,30.43,30.12,10,10,10,28,13,32,0.00,0,,195
2013-11-25,44,32,19,27,21,15,81,64,47,30.19,30.11,30.04,10,10,10,22,16,30,0.00,4,,279
2013-11-26,32,21,8,21,9,2,80,58,37,30.47,30.33,30.13,10,10,10,26,15,34,0.00,3,,333
2013-11-27,28,14,1,11,5,-3,87,67,43,30.46,30.26,30.04,10,10,10,21,9,26,0.00,0,,187
2013-11-28,30,18,5,15,10,1,84,69,51,30.56,30.37,30.07,10,10,10,21,10,26,0.00,1,,328
2013-11-29,37,20,3,22,13,-1,80,68,47,30.56,30.37,30.14,10,10,10,21,8,25,0.00,0,,159
2013-11-30,51,36,21,29,24,18,88,67,41,30.20,30.12,30.07,10,10,9,13,9,,0.00,0,,309